OCN4WJ EDDF-LEPA
Flight info
| Callsign | OCN4WJ |
|---|---|
| Flight time | 1h 51m |
| Altitude | 37000 |
| Route | ANEKI2L/18 ANEKI Y163 HERBI Y164 MOPAN DCT LUTIX DCT BENOT DCT NEMOS DCT GEVEA DCT INCUS DCT BALSI DCT RETNO DCT TUPOX DCT MTG DCT DIVKO DCT VATIR DCT PIVUS N852 BODEQ/N0450F370 N852 VERSO L129 LUNIK |
| Aircraft | A320/M-SDE3FGHIRWY/LB1 |
Departure
| Time | 2026-05-05 10:38 |
|---|---|
| Airport | Frankfurt Main Airport (EDDF) |
Arrival
| Time | 2026-05-05 12:29 |
|---|---|
| Airport | Palma de Mallorca Airport (LEPA) |
| Time | Latitude | Longitude | Altitude | Speed | Heading |
|---|---|---|---|---|---|
| 2026-05-05 10:01 | 50.04955 | 8.59079 | 363 ft | 0 kts | 160° |
| 2026-05-05 10:24 | 50.04963 | 8.59075 | 362 ft | 4 kts | 160° |
| 2026-05-05 10:24 | 50.04988 | 8.59060 | 365 ft | 3 kts | 159° |
| 2026-05-05 10:24 | 50.05007 | 8.59050 | 360 ft | 4 kts | 186° |
| 2026-05-05 10:25 | 50.05023 | 8.59067 | 363 ft | 3 kts | 249° |
| 2026-05-05 10:25 | 50.05030 | 8.59094 | 360 ft | 0 kts | 249° |
| 2026-05-05 10:28 | 50.05027 | 8.59083 | 367 ft | 4 kts | 250° |
| 2026-05-05 10:28 | 50.05007 | 8.59001 | 364 ft | 10 kts | 249° |
| 2026-05-05 10:28 | 50.04986 | 8.58914 | 363 ft | 8 kts | 248° |
| 2026-05-05 10:28 | 50.04963 | 8.58823 | 360 ft | 12 kts | 249° |
| 2026-05-05 10:29 | 50.04932 | 8.58708 | 366 ft | 11 kts | 235° |
| 2026-05-05 10:29 | 50.04842 | 8.58714 | 365 ft | 17 kts | 159° |
| 2026-05-05 10:29 | 50.04745 | 8.58766 | 369 ft | 13 kts | 165° |
| 2026-05-05 10:29 | 50.04674 | 8.58767 | 370 ft | 8 kts | 187° |
| 2026-05-05 10:30 | 50.04624 | 8.58754 | 370 ft | 0 kts | 195° |
| 2026-05-05 10:34 | 50.04609 | 8.58744 | 370 ft | 5 kts | 207° |
| 2026-05-05 10:34 | 50.04539 | 8.58662 | 371 ft | 15 kts | 217° |
| 2026-05-05 10:34 | 50.04475 | 8.58542 | 370 ft | 9 kts | 250° |
| 2026-05-05 10:35 | 50.04473 | 8.58534 | 370 ft | 0 kts | 251° |
| 2026-05-05 10:37 | 50.04472 | 8.58532 | 370 ft | 2 kts | 251° |
| 2026-05-05 10:37 | 50.04398 | 8.58216 | 374 ft | 67 kts | 250° |
| 2026-05-05 10:37 | 50.04161 | 8.57216 | 369 ft | 126 kts | 250° |
| 2026-05-05 10:38 | 50.03796 | 8.55695 | 358 ft | 171 kts | 250° |
| 2026-05-05 10:38 | 50.03385 | 8.53971 | 992 ft | 169 kts | 250° |
| 2026-05-05 10:38 | 50.02962 | 8.52226 | 1611 ft | 175 kts | 250° |
| 2026-05-05 10:38 | 50.02284 | 8.50575 | 1952 ft | 193 kts | 221° |
| 2026-05-05 10:39 | 50.01033 | 8.49585 | 2222 ft | 213 kts | 197° |
| 2026-05-05 10:39 | 49.99581 | 8.48977 | 2739 ft | 219 kts | 185° |
| 2026-05-05 10:39 | 49.98102 | 8.49517 | 3279 ft | 226 kts | 145° |
| 2026-05-05 10:39 | 49.97094 | 8.51368 | 3978 ft | 227 kts | 121° |
| 2026-05-05 10:40 | 49.96098 | 8.53266 | 4628 ft | 234 kts | 146° |
| 2026-05-05 10:40 | 49.94520 | 8.54074 | 5071 ft | 247 kts | 175° |
| 2026-05-05 10:40 | 49.92764 | 8.54114 | 5614 ft | 261 kts | 182° |
| 2026-05-05 10:40 | 49.90908 | 8.53953 | 6255 ft | 271 kts | 184° |
| 2026-05-05 10:41 | 49.89011 | 8.53802 | 7063 ft | 275 kts | 182° |
| 2026-05-05 10:41 | 49.87089 | 8.53733 | 7864 ft | 278 kts | 180° |
| 2026-05-05 10:41 | 49.85171 | 8.53741 | 8669 ft | 281 kts | 179° |
| 2026-05-05 10:41 | 49.83209 | 8.53809 | 9447 ft | 283 kts | 178° |
| 2026-05-05 10:42 | 49.79239 | 8.54054 | 10979 ft | 291 kts | 178° |
| 2026-05-05 10:42 | 49.77139 | 8.54009 | 11179 ft | 313 kts | 185° |
| 2026-05-05 10:42 | 49.74894 | 8.53711 | 11452 ft | 331 kts | 185° |
| 2026-05-05 10:43 | 49.72578 | 8.53401 | 12060 ft | 336 kts | 185° |
| 2026-05-05 10:43 | 49.70234 | 8.53088 | 12746 ft | 339 kts | 185° |
| 2026-05-05 10:43 | 49.67872 | 8.52778 | 13416 ft | 342 kts | 185° |
| 2026-05-05 10:43 | 49.65495 | 8.52469 | 14061 ft | 344 kts | 185° |
| 2026-05-05 10:44 | 49.63100 | 8.52158 | 14690 ft | 347 kts | 185° |
| 2026-05-05 10:44 | 49.60682 | 8.51841 | 15320 ft | 350 kts | 185° |
| 2026-05-05 10:44 | 49.58252 | 8.51518 | 15925 ft | 352 kts | 185° |
| 2026-05-05 10:44 | 49.55803 | 8.51190 | 16510 ft | 355 kts | 185° |
| 2026-05-05 10:45 | 49.53335 | 8.50860 | 17076 ft | 358 kts | 185° |
| 2026-05-05 10:45 | 49.50844 | 8.50532 | 17635 ft | 360 kts | 185° |
| 2026-05-05 10:45 | 49.48339 | 8.50206 | 18181 ft | 363 kts | 185° |
| 2026-05-05 10:45 | 49.45816 | 8.49880 | 18711 ft | 365 kts | 185° |
| 2026-05-05 10:46 | 49.43274 | 8.49549 | 19215 ft | 368 kts | 185° |
| 2026-05-05 10:46 | 49.40713 | 8.49214 | 19684 ft | 371 kts | 186° |
| 2026-05-05 10:46 | 49.38125 | 8.48877 | 20146 ft | 374 kts | 186° |
| 2026-05-05 10:46 | 49.35518 | 8.48539 | 20608 ft | 377 kts | 186° |
| 2026-05-05 10:47 | 49.32923 | 8.48200 | 21058 ft | 380 kts | 186° |
| 2026-05-05 10:47 | 49.30244 | 8.47849 | 21487 ft | 383 kts | 186° |
| 2026-05-05 10:47 | 49.27608 | 8.47508 | 21904 ft | 386 kts | 186° |
| 2026-05-05 10:47 | 49.24921 | 8.47164 | 22321 ft | 389 kts | 186° |
| 2026-05-05 10:48 | 49.22217 | 8.46816 | 22727 ft | 391 kts | 186° |
| 2026-05-05 10:48 | 49.19495 | 8.46459 | 23127 ft | 394 kts | 186° |
| 2026-05-05 10:48 | 49.16748 | 8.46101 | 23500 ft | 398 kts | 186° |
| 2026-05-05 10:48 | 49.13983 | 8.45740 | 23883 ft | 400 kts | 186° |
| 2026-05-05 10:49 | 49.11201 | 8.45377 | 24254 ft | 402 kts | 186° |
| 2026-05-05 10:49 | 49.08405 | 8.45015 | 24633 ft | 404 kts | 186° |
| 2026-05-05 10:49 | 49.05614 | 8.44488 | 25000 ft | 404 kts | 192° |
| 2026-05-05 10:49 | 49.02866 | 8.43540 | 25364 ft | 405 kts | 193° |
| 2026-05-05 10:50 | 49.00109 | 8.42578 | 25730 ft | 407 kts | 193° |
| 2026-05-05 10:50 | 48.97349 | 8.41614 | 26081 ft | 408 kts | 193° |
| 2026-05-05 10:50 | 48.94577 | 8.40648 | 26436 ft | 409 kts | 193° |
| 2026-05-05 10:50 | 48.91793 | 8.39676 | 26786 ft | 411 kts | 193° |
| 2026-05-05 10:51 | 48.89037 | 8.38717 | 27122 ft | 412 kts | 193° |
| 2026-05-05 10:51 | 48.86240 | 8.37744 | 27452 ft | 413 kts | 193° |
| 2026-05-05 10:51 | 48.83438 | 8.36770 | 27776 ft | 414 kts | 193° |
| 2026-05-05 10:51 | 48.80623 | 8.35797 | 28105 ft | 415 kts | 193° |
| 2026-05-05 10:52 | 48.77800 | 8.34822 | 28410 ft | 416 kts | 193° |
| 2026-05-05 10:52 | 48.74975 | 8.33818 | 28706 ft | 417 kts | 193° |
| 2026-05-05 10:52 | 48.72152 | 8.32788 | 28996 ft | 418 kts | 194° |
| 2026-05-05 10:52 | 48.69326 | 8.31744 | 29277 ft | 419 kts | 194° |
| 2026-05-05 10:53 | 48.66488 | 8.30689 | 29535 ft | 420 kts | 194° |
| 2026-05-05 10:53 | 48.63645 | 8.29639 | 29804 ft | 421 kts | 194° |
| 2026-05-05 10:53 | 48.60790 | 8.28591 | 30070 ft | 422 kts | 194° |
| 2026-05-05 10:53 | 48.57939 | 8.27554 | 30374 ft | 421 kts | 193° |
| 2026-05-05 10:54 | 48.56044 | 8.26868 | 30593 ft | 420 kts | 193° |
| 2026-05-05 10:54 | 48.53204 | 8.25843 | 30973 ft | 418 kts | 193° |
| 2026-05-05 10:54 | 48.49461 | 8.24493 | 31438 ft | 416 kts | 193° |
| 2026-05-05 10:54 | 48.46649 | 8.23476 | 31770 ft | 415 kts | 193° |
| 2026-05-05 10:55 | 48.44756 | 8.22787 | 32009 ft | 414 kts | 193° |
| 2026-05-05 10:55 | 48.41999 | 8.21779 | 32331 ft | 412 kts | 193° |
| 2026-05-05 10:55 | 48.39220 | 8.20762 | 32646 ft | 411 kts | 194° |
| 2026-05-05 10:55 | 48.36446 | 8.19744 | 32943 ft | 410 kts | 194° |
| 2026-05-05 10:56 | 48.33678 | 8.18731 | 33239 ft | 408 kts | 193° |
| 2026-05-05 10:56 | 48.30920 | 8.17728 | 33539 ft | 407 kts | 193° |
| 2026-05-05 10:56 | 48.28168 | 8.16732 | 33840 ft | 406 kts | 193° |
| 2026-05-05 10:56 | 48.25432 | 8.15686 | 34128 ft | 405 kts | 197° |
| 2026-05-05 10:57 | 48.22817 | 8.14119 | 34404 ft | 405 kts | 205° |
| 2026-05-05 10:57 | 48.20292 | 8.12240 | 34620 ft | 405 kts | 205° |
| 2026-05-05 10:57 | 48.17765 | 8.10364 | 34811 ft | 406 kts | 205° |
| 2026-05-05 10:57 | 48.15227 | 8.08487 | 35025 ft | 407 kts | 205° |
| 2026-05-05 10:58 | 48.12688 | 8.06610 | 35202 ft | 407 kts | 205° |
| 2026-05-05 10:58 | 48.10144 | 8.04730 | 35390 ft | 408 kts | 205° |
| 2026-05-05 10:58 | 48.07597 | 8.02854 | 35576 ft | 408 kts | 205° |
| 2026-05-05 10:58 | 48.05043 | 8.00975 | 35748 ft | 409 kts | 205° |
| 2026-05-05 10:59 | 48.02520 | 7.99116 | 35924 ft | 410 kts | 205° |
| 2026-05-05 10:59 | 47.99959 | 7.97232 | 36103 ft | 410 kts | 205° |
| 2026-05-05 10:59 | 47.97400 | 7.95351 | 36268 ft | 410 kts | 205° |
| 2026-05-05 10:59 | 47.94834 | 7.93468 | 36417 ft | 411 kts | 205° |
| 2026-05-05 11:00 | 47.92259 | 7.91584 | 36546 ft | 412 kts | 205° |
| 2026-05-05 11:00 | 47.89688 | 7.89705 | 36707 ft | 412 kts | 205° |
| 2026-05-05 11:00 | 47.87113 | 7.87824 | 36853 ft | 411 kts | 205° |
| 2026-05-05 11:01 | 47.81992 | 7.84090 | 36888 ft | 407 kts | 205° |
| 2026-05-05 11:01 | 47.76911 | 7.80409 | 36891 ft | 406 kts | 205° |
| 2026-05-05 11:02 | 47.71871 | 7.76755 | 36895 ft | 405 kts | 206° |
| 2026-05-05 11:02 | 47.66811 | 7.73082 | 36891 ft | 405 kts | 205° |
| 2026-05-05 11:03 | 47.61748 | 7.69419 | 36879 ft | 405 kts | 206° |
| 2026-05-05 11:03 | 47.56703 | 7.65745 | 36866 ft | 404 kts | 205° |
| 2026-05-05 11:04 | 47.51638 | 7.62121 | 36883 ft | 404 kts | 205° |
| 2026-05-05 11:04 | 47.46576 | 7.58499 | 36887 ft | 404 kts | 205° |
| 2026-05-05 11:05 | 47.41514 | 7.54869 | 36890 ft | 404 kts | 206° |
| 2026-05-05 11:05 | 47.36455 | 7.51244 | 36891 ft | 404 kts | 206° |
| 2026-05-05 11:06 | 47.31394 | 7.47638 | 36904 ft | 404 kts | 206° |
| 2026-05-05 11:06 | 47.26329 | 7.44035 | 36905 ft | 404 kts | 205° |
| 2026-05-05 11:07 | 47.21275 | 7.40441 | 36904 ft | 404 kts | 206° |
| 2026-05-05 11:07 | 47.16473 | 7.36212 | 36899 ft | 404 kts | 220° |
| 2026-05-05 11:08 | 47.12732 | 7.30069 | 36899 ft | 405 kts | 230° |
| 2026-05-05 11:08 | 47.09222 | 7.23589 | 36897 ft | 405 kts | 230° |
| 2026-05-05 11:09 | 47.05697 | 7.17115 | 36897 ft | 406 kts | 229° |
| 2026-05-05 11:09 | 47.02188 | 7.10705 | 36901 ft | 405 kts | 229° |
| 2026-05-05 11:10 | 46.98653 | 7.04264 | 36905 ft | 405 kts | 229° |
| 2026-05-05 11:10 | 46.95126 | 6.97830 | 36908 ft | 405 kts | 229° |
| 2026-05-05 11:11 | 46.91563 | 6.91426 | 36922 ft | 405 kts | 225° |
| 2026-05-05 11:11 | 46.87342 | 6.86032 | 36929 ft | 403 kts | 218° |
| 2026-05-05 11:12 | 46.82997 | 6.80864 | 36917 ft | 403 kts | 218° |
| 2026-05-05 11:12 | 46.78678 | 6.75735 | 36912 ft | 403 kts | 218° |
| 2026-05-05 11:13 | 46.74335 | 6.70580 | 36914 ft | 403 kts | 218° |
| 2026-05-05 11:13 | 46.69979 | 6.65426 | 36921 ft | 403 kts | 218° |
| 2026-05-05 11:14 | 46.65629 | 6.60278 | 36928 ft | 403 kts | 218° |
| 2026-05-05 11:14 | 46.61274 | 6.55133 | 36930 ft | 403 kts | 218° |
| 2026-05-05 11:15 | 46.56927 | 6.50007 | 36931 ft | 402 kts | 218° |
| 2026-05-05 11:15 | 46.52574 | 6.44905 | 36931 ft | 402 kts | 218° |
| 2026-05-05 11:16 | 46.48092 | 6.40058 | 36933 ft | 402 kts | 206° |
| 2026-05-05 11:16 | 46.42804 | 6.37442 | 36931 ft | 402 kts | 198° |
| 2026-05-05 11:17 | 46.37444 | 6.35076 | 36933 ft | 403 kts | 198° |
| 2026-05-05 11:17 | 46.32110 | 6.32741 | 36937 ft | 403 kts | 198° |
| 2026-05-05 11:18 | 46.26742 | 6.30378 | 36940 ft | 403 kts | 198° |
| 2026-05-05 11:18 | 46.21376 | 6.28015 | 36943 ft | 403 kts | 198° |
| 2026-05-05 11:19 | 46.16006 | 6.25654 | 36947 ft | 403 kts | 198° |
| 2026-05-05 11:19 | 46.10636 | 6.23306 | 36948 ft | 403 kts | 198° |
| 2026-05-05 11:20 | 46.05262 | 6.20949 | 36950 ft | 404 kts | 198° |
| 2026-05-05 11:20 | 45.99883 | 6.18602 | 36952 ft | 404 kts | 198° |
| 2026-05-05 11:21 | 45.94507 | 6.16257 | 36958 ft | 404 kts | 199° |
| 2026-05-05 11:21 | 45.89131 | 6.13918 | 36959 ft | 403 kts | 198° |
| 2026-05-05 11:22 | 45.83753 | 6.11587 | 36956 ft | 403 kts | 198° |
| 2026-05-05 11:22 | 45.78377 | 6.09260 | 36958 ft | 403 kts | 198° |
| 2026-05-05 11:23 | 45.73005 | 6.06927 | 36956 ft | 403 kts | 199° |
| 2026-05-05 11:23 | 45.67661 | 6.04623 | 36955 ft | 404 kts | 198° |
| 2026-05-05 11:24 | 45.62245 | 6.02295 | 36958 ft | 404 kts | 198° |
| 2026-05-05 11:24 | 45.56867 | 5.99993 | 36956 ft | 403 kts | 198° |
| 2026-05-05 11:25 | 45.51497 | 5.97685 | 36957 ft | 403 kts | 199° |
| 2026-05-05 11:25 | 45.46108 | 5.95442 | 36954 ft | 403 kts | 196° |
| 2026-05-05 11:26 | 45.40672 | 5.93680 | 36952 ft | 404 kts | 194° |
| 2026-05-05 11:26 | 45.35158 | 5.92097 | 36953 ft | 404 kts | 194° |
| 2026-05-05 11:27 | 45.29664 | 5.90456 | 36956 ft | 404 kts | 195° |
| 2026-05-05 11:27 | 45.24176 | 5.88751 | 36959 ft | 403 kts | 195° |
| 2026-05-05 11:28 | 45.18699 | 5.87040 | 36961 ft | 403 kts | 195° |
| 2026-05-05 11:28 | 45.13227 | 5.85331 | 36961 ft | 402 kts | 195° |
| 2026-05-05 11:29 | 45.07761 | 5.83632 | 36956 ft | 402 kts | 195° |
| 2026-05-05 11:29 | 45.02297 | 5.81944 | 36948 ft | 401 kts | 195° |
| 2026-05-05 11:30 | 44.96836 | 5.80265 | 36948 ft | 401 kts | 195° |
| 2026-05-05 11:30 | 44.91414 | 5.78607 | 36946 ft | 401 kts | 195° |
| 2026-05-05 11:31 | 44.85967 | 5.76936 | 36945 ft | 400 kts | 195° |
| 2026-05-05 11:31 | 44.80518 | 5.75268 | 36947 ft | 401 kts | 196° |
| 2026-05-05 11:32 | 44.75068 | 5.73591 | 36945 ft | 400 kts | 196° |
| 2026-05-05 11:32 | 44.69624 | 5.71928 | 36945 ft | 400 kts | 195° |
| 2026-05-05 11:33 | 44.64181 | 5.70271 | 36945 ft | 400 kts | 196° |
| 2026-05-05 11:33 | 44.58747 | 5.68621 | 36945 ft | 400 kts | 196° |
| 2026-05-05 11:34 | 44.53312 | 5.66980 | 36948 ft | 399 kts | 196° |
| 2026-05-05 11:34 | 44.47905 | 5.65346 | 36950 ft | 399 kts | 196° |
| 2026-05-05 11:35 | 44.42474 | 5.63705 | 36953 ft | 399 kts | 196° |
| 2026-05-05 11:35 | 44.37082 | 5.61848 | 36955 ft | 396 kts | 204° |
| 2026-05-05 11:36 | 44.31973 | 5.59033 | 36953 ft | 395 kts | 205° |
| 2026-05-05 11:36 | 44.26854 | 5.56234 | 36954 ft | 395 kts | 204° |
| 2026-05-05 11:37 | 44.21735 | 5.53446 | 36955 ft | 395 kts | 204° |
| 2026-05-05 11:37 | 44.16625 | 5.50659 | 36951 ft | 394 kts | 205° |
| 2026-05-05 11:38 | 44.11523 | 5.47872 | 36949 ft | 394 kts | 205° |
| 2026-05-05 11:38 | 44.06451 | 5.45107 | 36944 ft | 393 kts | 204° |
| 2026-05-05 11:39 | 44.01348 | 5.42343 | 36942 ft | 394 kts | 204° |
| 2026-05-05 11:39 | 43.96246 | 5.39582 | 36944 ft | 393 kts | 205° |
| 2026-05-05 11:40 | 43.91156 | 5.36818 | 36944 ft | 393 kts | 205° |
| 2026-05-05 11:40 | 43.86061 | 5.34063 | 36951 ft | 392 kts | 205° |
| 2026-05-05 11:41 | 43.80975 | 5.31316 | 36953 ft | 392 kts | 205° |
| 2026-05-05 11:41 | 43.75890 | 5.28586 | 36952 ft | 392 kts | 205° |
| 2026-05-05 11:42 | 43.70809 | 5.25863 | 36951 ft | 392 kts | 205° |
| 2026-05-05 11:42 | 43.65759 | 5.23164 | 36951 ft | 392 kts | 205° |
| 2026-05-05 11:43 | 43.60673 | 5.20436 | 36953 ft | 392 kts | 205° |
| 2026-05-05 11:43 | 43.55580 | 5.17709 | 36954 ft | 392 kts | 205° |
| 2026-05-05 11:44 | 43.50485 | 5.14990 | 36957 ft | 392 kts | 205° |
| 2026-05-05 11:44 | 43.45394 | 5.12273 | 36961 ft | 392 kts | 205° |
| 2026-05-05 11:45 | 43.41156 | 5.10026 | 36964 ft | 392 kts | 205° |
| 2026-05-05 11:45 | 43.36371 | 5.06573 | 36960 ft | 387 kts | 217° |
| 2026-05-05 11:46 | 43.31938 | 5.02370 | 36960 ft | 387 kts | 217° |
| 2026-05-05 11:46 | 43.27502 | 4.98191 | 36961 ft | 387 kts | 217° |
| 2026-05-05 11:47 | 43.23079 | 4.94035 | 36962 ft | 388 kts | 217° |
| 2026-05-05 11:47 | 43.18628 | 4.89857 | 36964 ft | 388 kts | 217° |
| 2026-05-05 11:48 | 43.11951 | 4.83603 | 36963 ft | 388 kts | 217° |
| 2026-05-05 11:48 | 43.07489 | 4.79433 | 36965 ft | 388 kts | 217° |
| 2026-05-05 11:49 | 43.02860 | 4.75594 | 36965 ft | 390 kts | 212° |
| 2026-05-05 11:49 | 42.98111 | 4.72004 | 36965 ft | 390 kts | 212° |
| 2026-05-05 11:50 | 42.93403 | 4.68439 | 36964 ft | 389 kts | 212° |
| 2026-05-05 11:50 | 42.88663 | 4.64854 | 36964 ft | 389 kts | 212° |
| 2026-05-05 11:51 | 42.83927 | 4.61275 | 36962 ft | 389 kts | 212° |
| 2026-05-05 11:51 | 42.79199 | 4.57703 | 36963 ft | 388 kts | 212° |
| 2026-05-05 11:52 | 42.74477 | 4.54139 | 36960 ft | 388 kts | 212° |
| 2026-05-05 11:52 | 42.69752 | 4.50596 | 36958 ft | 388 kts | 212° |
| 2026-05-05 11:53 | 42.65009 | 4.47048 | 36959 ft | 389 kts | 212° |
| 2026-05-05 11:53 | 42.60278 | 4.43506 | 36961 ft | 388 kts | 212° |
| 2026-05-05 11:54 | 42.55544 | 4.39967 | 36960 ft | 388 kts | 212° |
| 2026-05-05 11:54 | 42.50844 | 4.36465 | 36957 ft | 388 kts | 212° |
| 2026-05-05 11:55 | 42.46110 | 4.32939 | 36958 ft | 388 kts | 212° |
| 2026-05-05 11:55 | 42.41384 | 4.29417 | 36960 ft | 388 kts | 212° |
| 2026-05-05 11:56 | 42.36647 | 4.25906 | 36962 ft | 388 kts | 212° |
| 2026-05-05 11:56 | 42.31919 | 4.22408 | 36963 ft | 387 kts | 212° |
| 2026-05-05 11:57 | 42.27193 | 4.18916 | 36962 ft | 387 kts | 212° |
| 2026-05-05 11:57 | 42.22465 | 4.15427 | 36959 ft | 387 kts | 212° |
| 2026-05-05 11:58 | 42.17760 | 4.11960 | 36957 ft | 388 kts | 212° |
| 2026-05-05 11:58 | 42.13032 | 4.08471 | 36959 ft | 387 kts | 212° |
| 2026-05-05 11:59 | 42.08304 | 4.04990 | 36960 ft | 387 kts | 212° |
| 2026-05-05 11:59 | 42.03578 | 4.01520 | 36957 ft | 387 kts | 212° |
| 2026-05-05 12:00 | 41.98846 | 3.98065 | 36958 ft | 387 kts | 212° |
| 2026-05-05 12:00 | 41.94103 | 3.94628 | 36958 ft | 388 kts | 210° |
| 2026-05-05 12:01 | 41.88917 | 3.92554 | 36958 ft | 397 kts | 195° |
| 2026-05-05 12:01 | 41.83478 | 3.91300 | 36955 ft | 397 kts | 195° |
| 2026-05-05 12:02 | 41.78024 | 3.90044 | 36955 ft | 397 kts | 195° |
| 2026-05-05 12:02 | 41.72572 | 3.88794 | 36956 ft | 398 kts | 195° |
| 2026-05-05 12:03 | 41.67109 | 3.87539 | 36956 ft | 398 kts | 195° |
| 2026-05-05 12:03 | 41.61651 | 3.86284 | 36957 ft | 398 kts | 195° |
| 2026-05-05 12:04 | 41.56202 | 3.85025 | 36960 ft | 398 kts | 195° |
| 2026-05-05 12:04 | 41.50772 | 3.83781 | 36959 ft | 398 kts | 195° |
| 2026-05-05 12:05 | 41.45308 | 3.82533 | 36958 ft | 398 kts | 195° |
| 2026-05-05 12:05 | 41.39846 | 3.81288 | 36961 ft | 398 kts | 195° |
| 2026-05-05 12:06 | 41.34388 | 3.80043 | 36959 ft | 398 kts | 196° |
| 2026-05-05 12:06 | 41.28945 | 3.78802 | 36958 ft | 397 kts | 196° |
| 2026-05-05 12:07 | 41.23486 | 3.77557 | 36957 ft | 397 kts | 196° |
| 2026-05-05 12:07 | 41.18033 | 3.76317 | 36957 ft | 397 kts | 196° |
| 2026-05-05 12:08 | 41.12778 | 3.74410 | 36957 ft | 388 kts | 207° |
| 2026-05-05 12:08 | 41.07740 | 3.71791 | 36956 ft | 389 kts | 207° |
| 2026-05-05 12:09 | 41.02688 | 3.69190 | 36782 ft | 390 kts | 207° |
| 2026-05-05 12:09 | 41.00163 | 3.67892 | 36529 ft | 389 kts | 207° |
| 2026-05-05 12:09 | 40.97640 | 3.66595 | 36283 ft | 389 kts | 207° |
| 2026-05-05 12:10 | 40.95119 | 3.65301 | 35981 ft | 388 kts | 207° |
| 2026-05-05 12:10 | 40.92600 | 3.64009 | 35306 ft | 389 kts | 207° |
| 2026-05-05 12:10 | 40.90077 | 3.62718 | 34603 ft | 390 kts | 207° |
| 2026-05-05 12:10 | 40.87546 | 3.61420 | 33860 ft | 391 kts | 207° |
| 2026-05-05 12:11 | 40.84994 | 3.60109 | 33046 ft | 394 kts | 207° |
| 2026-05-05 12:11 | 40.82450 | 3.58806 | 32575 ft | 389 kts | 207° |
| 2026-05-05 12:11 | 40.79941 | 3.57527 | 32064 ft | 384 kts | 207° |
| 2026-05-05 12:11 | 40.77463 | 3.56266 | 31558 ft | 380 kts | 207° |
| 2026-05-05 12:12 | 40.75008 | 3.55017 | 31074 ft | 376 kts | 207° |
| 2026-05-05 12:12 | 40.72574 | 3.53778 | 30574 ft | 372 kts | 207° |
| 2026-05-05 12:12 | 40.70173 | 3.52554 | 30091 ft | 368 kts | 207° |
| 2026-05-05 12:12 | 40.67832 | 3.51361 | 29633 ft | 364 kts | 207° |
| 2026-05-05 12:13 | 40.65485 | 3.50167 | 29161 ft | 359 kts | 207° |
| 2026-05-05 12:13 | 40.63138 | 3.48972 | 28703 ft | 355 kts | 207° |
| 2026-05-05 12:13 | 40.60861 | 3.47810 | 28241 ft | 351 kts | 207° |
| 2026-05-05 12:13 | 40.58582 | 3.46650 | 27784 ft | 347 kts | 207° |
| 2026-05-05 12:14 | 40.56366 | 3.45529 | 27351 ft | 343 kts | 207° |
| 2026-05-05 12:14 | 40.54122 | 3.44399 | 26920 ft | 339 kts | 207° |
| 2026-05-05 12:14 | 40.51936 | 3.43298 | 26501 ft | 335 kts | 207° |
| 2026-05-05 12:14 | 40.49776 | 3.42205 | 26087 ft | 331 kts | 207° |
| 2026-05-05 12:15 | 40.47629 | 3.41115 | 25689 ft | 329 kts | 207° |
| 2026-05-05 12:15 | 40.45512 | 3.40086 | 25298 ft | 330 kts | 202° |
| 2026-05-05 12:15 | 40.43222 | 3.39466 | 24863 ft | 334 kts | 192° |
| 2026-05-05 12:15 | 40.40886 | 3.39412 | 24417 ft | 337 kts | 184° |
| 2026-05-05 12:16 | 40.38553 | 3.39559 | 23975 ft | 335 kts | 184° |
| 2026-05-05 12:16 | 40.36266 | 3.39695 | 23534 ft | 332 kts | 184° |
| 2026-05-05 12:16 | 40.33962 | 3.39826 | 23104 ft | 330 kts | 184° |
| 2026-05-05 12:16 | 40.31674 | 3.39953 | 22676 ft | 328 kts | 184° |
| 2026-05-05 12:17 | 40.29398 | 3.40077 | 22221 ft | 327 kts | 184° |
| 2026-05-05 12:17 | 40.27134 | 3.40203 | 21792 ft | 326 kts | 184° |
| 2026-05-05 12:17 | 40.24869 | 3.40333 | 21348 ft | 324 kts | 184° |
| 2026-05-05 12:17 | 40.22614 | 3.40285 | 20635 ft | 329 kts | 195° |
| 2026-05-05 12:18 | 40.20415 | 3.39245 | 19745 ft | 352 kts | 212° |
| 2026-05-05 12:18 | 40.18197 | 3.37519 | 18760 ft | 388 kts | 213° |
| 2026-05-05 12:18 | 40.15857 | 3.35666 | 17705 ft | 398 kts | 213° |
| 2026-05-05 12:18 | 40.13477 | 3.33781 | 16635 ft | 403 kts | 213° |
| 2026-05-05 12:19 | 40.11078 | 3.31886 | 15976 ft | 398 kts | 213° |
| 2026-05-05 12:19 | 40.08729 | 3.30038 | 15428 ft | 390 kts | 213° |
| 2026-05-05 12:19 | 40.06418 | 3.28223 | 14768 ft | 385 kts | 213° |
| 2026-05-05 12:19 | 40.04128 | 3.26431 | 14069 ft | 381 kts | 213° |
| 2026-05-05 12:20 | 40.01900 | 3.24685 | 13394 ft | 378 kts | 212° |
| 2026-05-05 12:20 | 39.99659 | 3.22935 | 12696 ft | 373 kts | 212° |
| 2026-05-05 12:20 | 39.97433 | 3.21196 | 11969 ft | 370 kts | 212° |
| 2026-05-05 12:20 | 39.95232 | 3.19476 | 11273 ft | 368 kts | 212° |
| 2026-05-05 12:21 | 39.93053 | 3.17775 | 10392 ft | 360 kts | 212° |
| 2026-05-05 12:21 | 39.90901 | 3.16096 | 9338 ft | 363 kts | 211° |
| 2026-05-05 12:21 | 39.88725 | 3.14398 | 8781 ft | 367 kts | 211° |
| 2026-05-05 12:21 | 39.86539 | 3.12691 | 8075 ft | 366 kts | 211° |
| 2026-05-05 12:22 | 39.84372 | 3.11001 | 7358 ft | 363 kts | 211° |
| 2026-05-05 12:22 | 39.82211 | 3.09321 | 6807 ft | 350 kts | 210° |
| 2026-05-05 12:22 | 39.80217 | 3.07771 | 6538 ft | 319 kts | 210° |
| 2026-05-05 12:22 | 39.78393 | 3.06352 | 6393 ft | 290 kts | 210° |
| 2026-05-05 12:23 | 39.76731 | 3.05063 | 6148 ft | 269 kts | 210° |
| 2026-05-05 12:23 | 39.75143 | 3.03834 | 5574 ft | 263 kts | 210° |
| 2026-05-05 12:23 | 39.73579 | 3.02621 | 4888 ft | 261 kts | 210° |
| 2026-05-05 12:23 | 39.72024 | 3.01414 | 4282 ft | 257 kts | 211° |
| 2026-05-05 12:24 | 39.70539 | 3.00263 | 4041 ft | 239 kts | 211° |
| 2026-05-05 12:24 | 39.69166 | 2.99198 | 3909 ft | 224 kts | 211° |
| 2026-05-05 12:24 | 39.67834 | 2.98168 | 3801 ft | 222 kts | 211° |
| 2026-05-05 12:24 | 39.66512 | 2.97146 | 3713 ft | 221 kts | 211° |
| 2026-05-05 12:25 | 39.65199 | 2.96104 | 3529 ft | 223 kts | 217° |
| 2026-05-05 12:25 | 39.64201 | 2.94591 | 3251 ft | 222 kts | 238° |
| 2026-05-05 12:25 | 39.63403 | 2.92881 | 2944 ft | 222 kts | 238° |
| 2026-05-05 12:25 | 39.62601 | 2.91161 | 2669 ft | 223 kts | 239° |
| 2026-05-05 12:26 | 39.61811 | 2.89478 | 2386 ft | 215 kts | 238° |
| 2026-05-05 12:26 | 39.61056 | 2.87873 | 2092 ft | 201 kts | 237° |
| 2026-05-05 12:26 | 39.60343 | 2.86354 | 1831 ft | 194 kts | 237° |
| 2026-05-05 12:26 | 39.59664 | 2.84912 | 1597 ft | 178 kts | 237° |
| 2026-05-05 12:27 | 39.59055 | 2.83618 | 1382 ft | 157 kts | 237° |
| 2026-05-05 12:27 | 39.58514 | 2.82471 | 1159 ft | 143 kts | 236° |
| 2026-05-05 12:27 | 39.58009 | 2.81400 | 973 ft | 137 kts | 236° |
| 2026-05-05 12:27 | 39.57516 | 2.80355 | 787 ft | 135 kts | 237° |
| 2026-05-05 12:28 | 39.57034 | 2.79317 | 620 ft | 135 kts | 238° |
| 2026-05-05 12:28 | 39.56551 | 2.78293 | 409 ft | 135 kts | 238° |
| 2026-05-05 12:28 | 39.56066 | 2.77253 | 238 ft | 135 kts | 237° |
| 2026-05-05 12:28 | 39.55570 | 2.76216 | 73 ft | 135 kts | 237° |
| 2026-05-05 12:29 | 39.55117 | 2.75242 | 31 ft | 113 kts | 241° |
| 2026-05-05 12:29 | 39.54792 | 2.74585 | 30 ft | 62 kts | 238° |
| 2026-05-05 12:29 | 39.54641 | 2.74263 | 30 ft | 33 kts | 240° |
| 2026-05-05 12:29 | 39.54554 | 2.73995 | 30 ft | 32 kts | 262° |
| 2026-05-05 12:30 | 39.54553 | 2.73746 | 30 ft | 21 kts | 272° |
| 2026-05-05 12:30 | 39.54607 | 2.73635 | 30 ft | 13 kts | 323° |
| 2026-05-05 12:30 | 39.54646 | 2.73536 | 30 ft | 12 kts | 320° |
| 2026-05-05 12:30 | 39.54712 | 2.73479 | 30 ft | 11 kts | 327° |
| 2026-05-05 12:31 | 39.54764 | 2.73431 | 30 ft | 8 kts | 301° |
| 2026-05-05 12:31 | 39.54746 | 2.73377 | 30 ft | 6 kts | 238° |
| 2026-05-05 12:31 | 39.54742 | 2.73367 | 30 ft | 0 kts | 239° |
| 2026-05-05 12:31 | 39.54739 | 2.73362 | 30 ft | 0 kts | 239° |